Aérodrome :
LOGIN :

S'inscrire | Disclaimer

   EN    FR    IT 

 










Légende :    VFR   VFR Marginal   IFR   IFR Intensif   IFR Très Intensif
Visi : 
Plafond : 
>= 8 km
>= 3000ft
5 à 8 km
1000 à 3000 ft
1500m à 5 km
500 à 1000 ft
800 à 1500m
200 à 500 ft
< 800m
< 200 ft
Symboles :   Orages  Brouillard  Fortes neiges  Fortes précipitations  Vent > 20 kt
SIGMETs :   Divers  Orages  Givrage  Turbulence  Onde Orograph.  Cendres Volcan.







- Altitude de l'aérodrome : 287 ft
- Voir les cartes d'approche


LFRL - Lanveoc Poulmic

DERNIER METAR :
  • 131530Z AUTO 10008KT 9999 BKN012 OVC023 05/04 Q1008 TEMPO 3000 RA BKN004 SCT010CB

METARs EXPIRÉS :
  • 131500Z AUTO 09007KT 9999 BKN012 OVC023 05/04 Q1008 TEMPO 13015G25KT 3000 RA BKN004 SCT010CB
  • 131430Z AUTO 09005KT 060V120 9999 SCT012 OVC022 06/04 Q1007 TEMPO 13015G25KT 3000 RA BKN004 SCT010CB
  • 131400Z AUTO 11007KT 9999 FEW013 OVC023 06/04 Q1007 TEMPO 3000 RA BKN004 SCT010CB BECMG 13015G25KT
  • 131330Z AUTO 09008KT 9999 FEW009 OVC022 05/04 Q1007 TEMPO 3000 RA BKN004 SCT010CB BECMG 13015G25KT
  • 131300Z AUTO 10008KT 4400 -DZ BR OVC022 05/04 Q1006 TEMPO RA BKN004 SCT010CB BECMG 13015G25KT

TAF TAF LFRL
Valide du 13 à 12h jusqu'au 14 à 12h UTC


131100Z 1312/1412 13015G25KT 9999 FEW010 BKN020
TEMPO 1312/1402 3000 RA BKN004 SCT010CB
BECMG 1316/1318 09005KT
BECMG 1402/1405 NSW BKN020
Pas de NOTAMs connus pour ce terrain.



MET'MAP, la Météo Aéronautique d'un coup d'oeil ! - Copyright ORBIFLY Décembre 2007 - Disclaimer

ORBIFLY MET'MAP TEAM :

Programmation & Développement : Alexandra Zaïnal
Conception & Développement : Baudouin d'Aumeries
Co-Programmation & Développement : Marc-Olivier Méhu
Soutien technique & logistique : Manuel Goepfert

Contact : metmap@orbifly.com




SOURCES & CREDITS :

   NOAA